• Join FlightAware (Why Join?)
  • Login
  • US Flag 
08:55PM EDT


 

Airport Tracker/Info


-or-


 

Live Flight TrackerFlight Track Log ✈ N2317S ✈ 01-May-2013 ✈ KBTV - KBDR

Flight Track Log - Related Links

Times and Time Zones

All times are in EDT time to prevent confusion due to time zone crossing. See the N2317S flight status page for this flight to view local times or setup timezone preferences in your user account.

Time Position Orientation Groundspeed Altitude Reporting Facility
EDT Latitude Longitude Course Direction KTS MPH feet Rate Location/Type
11:42AM 44.2382 -73.1786 185° South  Level FlightAware Approximate
11:43AM 44.2001 -73.1833 185° South  Level FlightAware Approximate
11:44AM 44.1621 -73.1897 187° South  Level FlightAware Approximate
11:45AM 44.1242 -73.1960 187° South  Level FlightAware Approximate
11:45AM 44.1336 -73.2094 189° South 142 163 7,400  Level Boston Center
11:46AM 44.0863 -73.2032 189° South  Level FlightAware Approximate
11:46AM 44.0961 -73.2178 189° South 150 173 8,000  Level Boston Center
11:47AM 44.0486 -73.2119 189° South  Level FlightAware Approximate
11:47AM 44.0586 -73.2231 186° South 150 173 8,700  Level Boston Center
11:48AM 44.0109 -73.2206 189° South  Level FlightAware Approximate
11:48AM 44.0189 -73.2311 188° South 150 173 9,300  Level Boston Center
11:49AM 43.9732 -73.2293 189° South  Level FlightAware Approximate
11:49AM 43.9794 -73.2364 185° South 150 173 10,000  Level Boston Center
11:50AM 43.9354 -73.2380 189° South  Level FlightAware Approximate
11:50AM 43.9333 -73.2472 190° South 160 184 10,000  Level Boston Center
11:51AM 43.8977 -73.2467 189° South  Level FlightAware Approximate
11:51AM 43.8833 -73.2581 189° South 180 207 10,000  Level Boston Center
11:52AM 43.8333 -73.2661 187° South 183 211 10,000  Level Boston Center
11:53AM 43.7833 -73.2742 187° South 183 211 10,000  Level Boston Center
11:54AM 43.7478 -73.2792 186° South 173 199 10,000  Level Boston Center
11:55AM 43.6831 -73.2897 187° South 179 206 10,000  Level Boston Center
11:56AM 43.6414 -73.2950 185° South 179 206 10,000  Level Boston Center
11:57AM 43.6039 -73.3031 189° South 179 206 10,000  Level Boston Center
11:58AM 43.5703 -73.3083 186° South 173 199 10,000  Level Boston Center
11:58AM 43.5475 -73.3108 185° South 179 206 10,000  Level Boston Center
11:59AM 43.4994 -73.3217 189° South 179 206 10,000  Level Boston Center
12:00PM 43.4389 -73.3294 185° South 171 197 10,000  Level Boston Center
12:01PM 43.3931 -73.3372 187° South 170 196 10,000  Level Boston Center
12:02PM 43.3450 -73.3481 189° South 170 196 10,000  Level Boston Center
12:03PM 43.2992 -73.3531 185° South 170 196 10,000  Level Boston Center
12:04PM 43.2511 -73.3664 191° South 173 199 10,000  Level Boston Center
12:05PM 43.2011 -73.3714 184° South 168 193 10,000  Level Boston Center
12:06PM 43.1572 -73.3764 185° South 178 205 10,000  Level Boston Center
12:07PM 43.1114 -73.3844 187° South 178 205 10,000  Level Boston Center
12:08PM 43.0611 -73.3950 189° South 168 193 10,000  Level Boston Center
12:09PM 43.0153 -73.3997 184° South 168 193 10,000  Level Boston Center
12:10PM 42.9694 -73.4106 190° South 169 194 10,000  Level Boston Center
12:11PM 42.9214 -73.4183 187° South 172 198 10,000  Level Boston Center
12:12PM 42.8714 -73.4289 189° South 173 199 10,000  Level Boston Center
12:13PM 42.8233 -73.4364 187° South 170 196 10,000  Level Boston Center
12:14PM 42.7775 -73.4414 185° South 167 192 10,000  Level Boston Center
12:15PM 42.7294 -73.4492 187° South 167 192 10,000  Level Boston Center
12:16PM 42.6856 -73.4569 187° South 164 189 10,000  Level Boston Center
12:17PM 42.6397 -73.4647 187° South 165 190 10,000  Level Boston Center
12:18PM 42.5917 -73.4750 189° South 168 193 10,000  Level Boston Center
12:20PM 42.5497 -73.4828 188° South 167 192 10,000  Level Boston Center
12:20PM 42.5186 -73.4822 179° South 169 194 10,000  Level Boston Center
12:21PM 42.4997 -73.4878 192° South 166 191 10,000  Level Boston Center
12:21PM 42.4728 -73.4900 183° South 191 220 10,000  Level Boston Center
12:22PM 42.4267 -73.4978 187° South 179 206 10,000  Level Boston Center
12:23PM 42.3828 -73.5053 187° South 174 200 10,000  Level Boston Center
12:24PM 42.3369 -73.5131 187° South 174 200 10,000  Level Boston Center
12:25PM 42.2972 -73.5208 188° South 174 200 10,000  Level Boston Center
12:26PM 42.2492 -73.5283 187° South 174 200 10,000  Level Boston Center
12:27PM 42.2033 -73.5358 187° South 174 200 10,000  Level Boston Center
12:28PM 42.1575 -73.5436 187° South 174 200 10,000  Level Boston Center
12:29PM 42.1114 -73.5511 187° South 174 200 10,000 -120 Level Boston Center
12:30PM 42.0572 -73.5475 177° South 179 206 9,800 -360 Descending Boston Center
12:31PM 42.0117 -73.5439 177° South 179 206 9,300 -540 Descending Boston Center
12:32PM 41.9575 -73.5372 175° South 179 206 8,800 -540 Descending Boston Center
12:33PM 41.9117 -73.5308 174° South 179 206 8,300 -600 Descending Boston Center
12:34PM 41.8575 -73.5272 177° South 179 206 7,700 -600 Descending Boston Center
12:35PM 41.8139 -73.5208 174° South 179 206 7,200 -540 Descending Boston Center
12:36PM 41.7597 -73.5172 177° South 179 206 6,700 -540 Descending Boston Center
12:37PM 41.7158 -73.5108 174° South 179 206 6,200 -180 Descending Boston Center
12:40PM 41.6000 -73.5000 176° South 163 188 6,100 -60 Descending New York TRACON
12:41PM 41.5667 -73.4833 159° South 163 188 6,100 -120 Level New York TRACON
12:42PM 41.5167 -73.4833 180° South 167 192 5,900 -300 Descending New York TRACON
12:43PM 41.4667 -73.4667 166° South 162 186 5,600 -360 Descending New York TRACON
12:44PM 41.4500 -73.4167 114° Southeast 153 176 5,200 -420 Descending New York TRACON
12:45PM 41.4167 -73.3833 143° Southeast 151 174 4,800 -360 Descending New York TRACON
12:46PM 41.3833 -73.3500 143° Southeast 154 177 4,500 -480 Descending New York TRACON
12:47PM 41.3333 -73.3333 166° South 150 173 3,900 -600 Descending New York TRACON
12:48PM 41.3000 -73.3333 180° South 150 173 3,400 -480 Descending New York TRACON
12:49PM 41.2667 -73.3333 180° South 142 163 3,000 -420 Descending New York TRACON
12:50PM 41.2167 -73.3333 180° South 134 154 2,600 -540 Descending New York TRACON
12:51PM 41.1833 -73.3500 201° Southwest 138 159 2,000 -300 Descending New York TRACON
12:52PM 41.1500 -73.3500 180° South 112 129 2,100  Climbing New York TRACON
12:53PM 41.1167 -73.3500 180° South 115 132 2,100  Level New York TRACON
12:54PM 41.0833 -73.3500 180° South 117 135 2,100  Level New York TRACON
12:55PM 41.0667 -73.3500 180° South 106 122 2,100  Level New York TRACON
12:56PM 41.0500 -73.3167 124° Southeast 106 122 2,100  Level New York TRACON
12:57PM 41.0667 -73.2833 56° Northeast 108 124 2,100  Level New York TRACON
12:58PM 41.0833 -73.2500 56° Northeast 111 128 2,100 -240 Level New York TRACON
12:59PM 41.1000 -73.2000 66° East 118 136 1,700 -420 Descending New York TRACON